Time;durP1;ratioP1;P1;durP2;ratioP2;P2;SDS_P1;SDS_P2;PMS_P1;PMS_P2;Temp;Humidity;BMP_temperature;BMP_pressure;BME280_temperature;BME280_humidity;BME280_pressure;Samples;Min_cycle;Max_cycle;Signal;HPM_P1;HPM_P2
2023/05/11 00:01:27;;;;;;;0.00;0.00;;;13.80;99.90;;;;;;5056103;28;20070;-75
2023/05/11 00:03:54;;;;;;;2.55;1.83;;;13.90;99.90;;;;;;5056090;28;20385;-74
2023/05/11 00:06:20;;;;;;;1.00;0.47;;;13.80;99.90;;;;;;5055927;28;20504;-77
2023/05/11 00:08:46;;;;;;;6.18;2.85;;;13.70;99.90;;;;;;5056082;28;20056;-76
2023/05/11 00:11:12;;;;;;;2.78;1.85;;;13.80;99.90;;;;;;5056214;28;20362;-77
2023/05/11 00:13:37;;;;;;;0.10;0.10;;;13.70;99.90;;;;;;5055740;28;20113;-76
2023/05/11 00:16:03;;;;;;;0.80;0.75;;;13.70;99.90;;;;;;5056293;28;20075;-71
2023/05/11 00:18:29;;;;;;;3.47;1.45;;;13.70;99.90;;;;;;5055915;28;20032;-71
2023/05/11 00:20:55;;;;;;;0.05;0.05;;;13.80;99.90;;;;;;5055966;28;20021;-69
2023/05/11 00:23:21;;;;;;;0.00;0.00;;;13.80;99.90;;;;;;5055767;28;20306;-69
2023/05/11 00:25:47;;;;;;;0.75;0.70;;;13.70;99.90;;;;;;5055902;28;20035;-71
2023/05/11 00:28:12;;;;;;;4.18;1.58;;;13.80;99.90;;;;;;5055470;28;20116;-70
2023/05/11 00:30:41;;;;;;;0.57;0.40;;;13.60;99.90;;;;;;5052856;28;20029;-71
2023/05/11 00:33:07;;;;;;;2.40;2.03;;;13.70;99.90;;;;;;5055658;28;20025;-70
2023/05/11 00:35:33;;;;;;;3.20;2.13;;;13.60;99.90;;;;;;5055312;28;20108;-72
2023/05/11 00:37:59;;;;;;;8.55;2.80;;;13.40;99.90;;;;;;5051009;28;20056;-71
2023/05/11 00:40:25;;;;;;;2.80;2.63;;;13.50;99.90;;;;;;5047814;28;20520;-71
2023/05/11 00:42:50;;;;;;;4.05;1.55;;;13.50;99.90;;;;;;5055289;28;20053;-71
2023/05/11 00:45:16;;;;;;;8.63;5.55;;;13.30;99.90;;;;;;5034031;28;20037;-71
2023/05/11 00:47:42;;;;;;;2.50;2.15;;;13.30;99.90;;;;;;5051598;28;20080;-70
2023/05/11 00:50:08;;;;;;;9.95;4.72;;;13.10;99.90;;;;;;5037138;28;20029;-71
2023/05/11 00:52:34;;;;;;;4.75;3.42;;;13.10;99.90;;;;;;5034156;28;20017;-71
2023/05/11 00:55:00;;;;;;;1.02;0.50;;;13.00;99.90;;;;;;5033723;28;20496;-71
2023/05/11 00:57:26;;;;;;;3.83;2.75;;;13.10;99.90;;;;;;5047630;28;20032;-71
2023/05/11 00:59:52;;;;;;;0.10;0.10;;;13.00;99.90;;;;;;5054921;28;20028;-70
2023/05/11 01:02:18;;;;;;;6.80;3.55;;;13.10;99.90;;;;;;5034078;28;20017;-70
2023/05/11 01:04:44;;;;;;;5.93;3.50;;;13.00;99.90;;;;;;5051226;28;20044;-71
2023/05/11 01:07:19;;;;;;;1.60;1.50;;;13.10;99.90;;;;;;5054955;28;20017;-70
2023/05/11 01:10:09;;;;;;;0.30;0.30;;;13.10;99.90;;;;;;5035548;28;20057;-71
2023/05/11 01:13:09;;;;;;;0.60;0.60;;;13.00;99.90;;;;;;5033932;28;20025;-71
2023/05/11 01:15:45;;;;;;;0.43;0.43;;;12.90;99.90;;;;;;5027687;28;20044;-70
2023/05/11 01:18:33;;;;;;;4.30;3.90;;;12.90;99.90;;;;;;5033425;28;20159;-71
2023/05/11 01:21:08;;;;;;;12.90;4.10;;;12.80;99.90;;;;;;5036593;28;20029;-72
2023/05/11 01:24:06;;;;;;;1.45;1.35;;;12.70;99.90;;;;;;5033489;28;20064;-71
2023/05/11 01:27:10;;;;;;;1.00;1.00;;;12.70;99.90;;;;;;5033506;28;20036;-71
2023/05/11 01:29:41;;;;;;;1.92;0.95;;;12.90;99.90;;;;;;5033428;28;20064;-71
2023/05/11 01:32:18;;;;;;;5.07;1.08;;;13.00;99.90;;;;;;5027477;28;20033;-71
2023/05/11 01:34:46;;;;;;;18.45;7.55;;;13.00;99.90;;;;;;5057079;28;20499;-71
2023/05/11 01:37:17;;;;;;;1.98;0.95;;;12.80;99.90;;;;;;5016781;28;20063;-71
2023/05/11 01:39:52;;;;;;;12.73;1.83;;;12.80;99.90;;;;;;5040866;28;20044;-71
2023/05/11 01:42:23;;;;;;;2.90;0.68;;;12.80;99.90;;;;;;5054354;28;20095;-70
2023/05/11 01:44:52;;;;;;;5.97;3.05;;;12.60;99.90;;;;;;5054162;28;20087;-71
2023/05/11 01:47:21;;;;;;;1.23;0.95;;;12.60;99.90;;;;;;5053932;28;20086;-72
2023/05/11 01:49:48;;;;;;;6.72;3.75;;;12.70;99.90;;;;;;5016488;28;20028;-71
2023/05/11 01:52:16;;;;;;;3.50;1.85;;;12.50;99.90;;;;;;5045820;28;20100;-71
2023/05/11 01:54:46;;;;;;;0.20;0.20;;;12.60;99.90;;;;;;5032873;28;20126;-72
2023/05/11 01:57:12;;;;;;;8.10;1.98;;;12.80;99.90;;;;;;5010226;28;20039;-70
2023/05/11 01:59:39;;;;;;;0.40;0.40;;;12.70;99.90;;;;;;5031951;28;20056;-70
2023/05/11 02:02:07;;;;;;;2.00;1.33;;;12.60;99.90;;;;;;5035661;28;20032;-70
2023/05/11 02:04:36;;;;;;;12.23;3.55;;;12.50;99.90;;;;;;5032760;28;20029;-71
2023/05/11 02:07:02;;;;;;;4.65;2.50;;;12.50;99.90;;;;;;5018164;28;20029;-71
2023/05/11 02:09:31;;;;;;;7.43;3.67;;;12.50;99.90;;;;;;5032023;28;20090;-74
2023/05/11 02:11:59;;;;;;;0.70;0.70;;;12.30;99.90;;;;;;5024340;28;20112;-75
2023/05/11 02:14:28;;;;;;;7.53;2.30;;;12.30;99.90;;;;;;5033735;28;20025;-76
2023/05/11 02:16:55;;;;;;;3.25;1.25;;;12.30;99.90;;;;;;5032035;28;20028;-75
2023/05/11 02:19:21;;;;;;;0.10;0.10;;;12.20;99.90;;;;;;5031838;28;20473;-75
2023/05/11 02:21:48;;;;;;;5.22;3.15;;;12.30;99.90;;;;;;5053772;28;20037;-76
2023/05/11 02:24:15;;;;;;;0.05;0.05;;;12.20;99.90;;;;;;5053437;28;20033;-74
2023/05/11 02:26:41;;;;;;;0.10;0.10;;;12.20;99.90;;;;;;5053486;28;20031;-76
2023/05/11 02:29:07;;;;;;;0.52;0.52;;;12.50;99.90;;;;;;5053429;28;20029;-73
2023/05/11 02:31:39;;;;;;;0.00;0.00;;;12.30;99.90;;;;;;5053008;28;20028;-75
2023/05/11 02:34:06;;;;;;;;;;;12.30;99.90;;;;;;5053868;28;20025;-76
2023/05/11 02:36:36;;;;;;;0.00;0.00;;;12.30;99.90;;;;;;5035240;28;19909;-72
2023/05/11 02:39:08;;;;;;;0.00;0.00;;;12.40;99.90;;;;;;5035842;28;20029;-75
2023/05/11 02:41:40;;;;;;;0.60;0.60;;;12.40;99.90;;;;;;5050983;28;20025;-74
2023/05/11 02:44:10;;;;;;;0.05;0.05;;;12.40;99.90;;;;;;5048743;28;20036;-75
2023/05/11 02:46:37;;;;;;;0.40;0.40;;;12.40;99.90;;;;;;5046306;28;20029;-76
2023/05/11 02:49:08;;;;;;;0.17;0.17;;;12.50;99.90;;;;;;5085530;28;20021;-76
2023/05/11 02:51:36;;;;;;;0.03;0.03;;;12.30;99.90;;;;;;5049497;28;20034;-74
2023/05/11 02:54:09;;;;;;;0.00;0.00;;;12.50;99.90;;;;;;5053175;28;20066;-76
2023/05/11 02:56:38;;;;;;;0.52;0.52;;;12.40;99.90;;;;;;5049035;28;20133;-70
2023/05/11 02:59:04;;;;;;;0.10;0.10;;;12.50;99.90;;;;;;5053206;28;20485;-70
2023/05/11 03:01:32;;;;;;;0.10;0.10;;;12.60;99.90;;;;;;5048035;28;20029;-69
2023/05/11 03:03:58;;;;;;;0.63;0.63;;;12.40;99.90;;;;;;5050550;28;20024;-70
2023/05/11 03:06:25;;;;;;;0.00;0.00;;;12.30;99.90;;;;;;5035197;28;20028;-70
2023/05/11 03:08:51;;;;;;;0.00;0.00;;;12.30;99.90;;;;;;5050364;28;20034;-70
2023/05/11 03:11:18;;;;;;;0.57;0.57;;;12.20;99.90;;;;;;5048234;28;20021;-71
2023/05/11 03:13:46;;;;;;;0.10;0.10;;;12.10;99.90;;;;;;5059967;28;20017;-70
2023/05/11 03:16:14;;;;;;;0.57;0.57;;;12.10;99.90;;;;;;5048027;28;20068;-70
2023/05/11 03:18:41;;;;;;;0.00;0.00;;;11.90;99.90;;;;;;5045983;28;20025;-70
2023/05/11 03:21:07;;;;;;;0.00;0.00;;;11.80;99.90;;;;;;5048155;28;20049;-70
2023/05/11 03:23:35;;;;;;;5.65;0.95;;;11.70;99.90;;;;;;5042641;28;20072;-70
2023/05/11 03:26:02;;;;;;;0.75;0.75;;;11.60;99.90;;;;;;5031243;28;20064;-70
2023/05/11 03:28:30;;;;;;;0.55;0.55;;;11.50;99.90;;;;;;5040732;28;20040;-70
2023/05/11 03:31:00;;;;;;;6.22;2.47;;;11.70;99.90;;;;;;5050362;28;20025;-70
2023/05/11 03:33:26;;;;;;;0.77;0.55;;;11.60;99.90;;;;;;5047816;28;20026;-70
2023/05/11 03:35:54;;;;;;;0.20;0.20;;;11.80;99.90;;;;;;5046060;28;20036;-70
2023/05/11 03:38:23;;;;;;;0.00;0.00;;;11.90;99.90;;;;;;5047683;28;20020;-70
2023/05/11 03:40:52;;;;;;;0.10;0.10;;;11.70;99.90;;;;;;5044772;28;20044;-70
2023/05/11 03:43:20;;;;;;;5.28;2.63;;;11.90;99.90;;;;;;5047381;28;20021;-70
2023/05/11 03:45:50;;;;;;;0.45;0.45;;;11.70;99.90;;;;;;5040229;28;20224;-70
2023/05/11 03:48:19;;;;;;;2.45;0.45;;;11.70;99.90;;;;;;5046492;28;20018;-70
2023/05/11 03:50:45;;;;;;;0.05;0.05;;;11.70;99.90;;;;;;5038795;28;20401;-69
2023/05/11 03:53:12;;;;;;;0.20;0.20;;;11.90;99.90;;;;;;5047865;28;20029;-70
2023/05/11 03:55:38;;;;;;;0.80;0.60;;;11.80;99.90;;;;;;5047800;28;20032;-70
2023/05/11 03:58:10;;;;;;;0.13;0.13;;;11.70;99.90;;;;;;5050552;28;20033;-71
2023/05/11 04:00:40;;;;;;;0.17;0.17;;;11.60;99.90;;;;;;5052360;28;20036;-70
2023/05/11 04:03:08;;;;;;;0.88;0.38;;;11.80;99.90;;;;;;5048387;28;20029;-70
2023/05/11 04:05:34;;;;;;;0.35;0.35;;;11.90;99.90;;;;;;5052099;28;20041;-70
2023/05/11 04:08:03;;;;;;;0.00;0.00;;;11.60;99.90;;;;;;5047096;28;20435;-71
2023/05/11 04:10:29;;;;;;;1.25;0.95;;;11.70;99.90;;;;;;5047441;28;20021;-70
2023/05/11 04:12:56;;;;;;;0.00;0.00;;;11.80;99.90;;;;;;5046902;28;20482;-70
2023/05/11 04:15:21;;;;;;;1.30;0.73;;;11.90;99.90;;;;;;5045713;28;20025;-72
2023/05/11 04:17:47;;;;;;;0.20;0.20;;;11.70;99.90;;;;;;5051835;28;20024;-71
2023/05/11 04:20:13;;;;;;;0.00;0.00;;;11.90;99.90;;;;;;5047481;28;20041;-75
2023/05/11 04:22:39;;;;;;;8.13;2.38;;;12.10;99.90;;;;;;5049748;28;20155;-75
2023/05/11 04:25:06;;;;;;;0.55;0.55;;;11.90;99.90;;;;;;5047298;28;20033;-71
2023/05/11 04:27:33;;;;;;;2.75;1.48;;;11.80;99.90;;;;;;5047625;28;20033;-74
2023/05/11 04:29:59;;;;;;;4.22;2.47;;;11.70;99.90;;;;;;5030697;28;20033;-75
2023/05/11 04:32:27;;;;;;;9.88;2.35;;;11.70;99.90;;;;;;5054115;28;20033;-74
2023/05/11 04:34:53;;;;;;;0.65;0.65;;;11.80;99.90;;;;;;5051118;28;20026;-76
2023/05/11 04:37:22;;;;;;;1.13;1.08;;;11.80;99.90;;;;;;5054057;28;20037;-74
2023/05/11 04:39:48;;;;;;;0.20;0.20;;;11.90;99.90;;;;;;5050723;28;20021;-76
2023/05/11 04:42:14;;;;;;;1.25;0.85;;;11.90;99.90;;;;;;5041654;28;20037;-74
2023/05/11 04:44:41;;;;;;;0.38;0.38;;;12.00;99.90;;;;;;5051066;28;20045;-73
2023/05/11 04:47:07;;;;;;;2.58;1.65;;;12.00;99.90;;;;;;5034371;28;20028;-73
2023/05/11 04:49:33;;;;;;;2.50;1.63;;;12.10;99.90;;;;;;5049009;28;20079;-71
2023/05/11 04:51:59;;;;;;;0.40;0.40;;;11.90;99.90;;;;;;5055415;28;20060;-74
2023/05/11 04:54:25;;;;;;;17.13;4.38;;;12.00;99.90;;;;;;5050561;28;20442;-73
2023/05/11 04:56:51;;;;;;;3.30;1.10;;;12.10;99.90;;;;;;5053678;28;20107;-76
2023/05/11 04:59:17;;;;;;;15.93;2.50;;;11.90;99.90;;;;;;5050447;28;20474;-75
2023/05/11 05:01:43;;;;;;;2.17;1.42;;;11.90;99.90;;;;;;5048145;28;20030;-74
2023/05/11 05:04:09;;;;;;;0.05;0.05;;;11.90;99.90;;;;;;5044283;28;20040;-76
2023/05/11 05:06:37;;;;;;;0.88;0.82;;;12.10;99.90;;;;;;5051650;28;20044;-75
2023/05/11 05:09:03;;;;;;;4.10;2.60;;;12.30;99.90;;;;;;5054962;28;20009;-74
2023/05/11 05:11:29;;;;;;;0.93;0.50;;;12.30;99.90;;;;;;5049903;28;20116;-75
2023/05/11 05:13:55;;;;;;;0.98;0.98;;;12.10;99.90;;;;;;5048169;28;20036;-74
2023/05/11 05:16:21;;;;;;;0.55;0.55;;;12.20;99.90;;;;;;5050345;28;20033;-75
2023/05/11 05:18:47;;;;;;;1.05;0.93;;;12.30;99.90;;;;;;5048939;28;20373;-75
2023/05/11 05:21:14;;;;;;;1.77;1.55;;;12.30;99.90;;;;;;5054579;28;20098;-76
2023/05/11 05:23:39;;;;;;;1.45;1.17;;;12.40;99.90;;;;;;5050227;28;20454;-74
2023/05/11 05:26:05;;;;;;;0.15;0.15;;;12.50;99.90;;;;;;5051071;28;20025;-73
2023/05/11 05:28:34;;;;;;;0.00;0.00;;;12.70;99.90;;;;;;5050076;28;20021;-75
2023/05/11 05:31:01;;;;;;;0.10;0.10;;;12.60;99.90;;;;;;5053278;28;20036;-74
2023/05/11 05:33:27;;;;;;;3.85;3.55;;;12.80;99.90;;;;;;5050163;28;20034;-75
2023/05/11 05:35:53;;;;;;;0.40;0.40;;;12.80;99.90;;;;;;5048988;28;20052;-76
2023/05/11 05:38:19;;;;;;;0.75;0.75;;;12.80;99.90;;;;;;5050020;28;20026;-76
2023/05/11 05:40:45;;;;;;;3.22;2.28;;;12.90;99.90;;;;;;5042264;28;20061;-75
2023/05/11 05:43:12;;;;;;;3.17;2.25;;;12.80;99.90;;;;;;5048824;28;20071;-70
2023/05/11 05:45:38;;;;;;;5.50;2.65;;;12.90;99.90;;;;;;5040590;28;20346;-70
2023/05/11 05:48:05;;;;;;;0.00;0.00;;;12.90;99.90;;;;;;5052577;28;20032;-70
2023/05/11 05:50:32;;;;;;;2.28;2.08;;;13.00;99.90;;;;;;5049447;28;20183;-70
2023/05/11 05:52:58;;;;;;;0.10;0.10;;;13.00;99.90;;;;;;5046029;28;20501;-70
2023/05/11 05:55:26;;;;;;;10.70;3.00;;;13.10;99.90;;;;;;5049280;28;20023;-70
2023/05/11 05:57:53;;;;;;;0.17;0.17;;;13.20;99.90;;;;;;5043382;28;20482;-70
2023/05/11 06:00:19;;;;;;;0.00;0.00;;;13.40;99.90;;;;;;5049335;28;20036;-70
2023/05/11 06:02:53;;;;;;;16.65;3.53;;;13.70;99.90;;;;;;5042356;28;20057;-69
2023/05/11 06:05:23;;;;;;;5.18;1.10;;;13.50;99.90;;;;;;5048786;28;20157;-69
2023/05/11 06:07:50;;;;;;;1.85;0.38;;;13.30;99.90;;;;;;5045622;28;20029;-69
2023/05/11 06:10:17;;;;;;;0.30;0.30;;;13.40;99.90;;;;;;5048864;28;20504;-70
2023/05/11 06:12:45;;;;;;;3.97;1.55;;;13.50;99.90;;;;;;5072150;28;20477;-69
2023/05/11 06:15:11;;;;;;;1.50;1.40;;;13.30;99.90;;;;;;5049185;28;20022;-69
2023/05/11 06:17:40;;;;;;;0.65;0.65;;;13.20;99.90;;;;;;5047415;28;20501;-71
2023/05/11 06:20:07;;;;;;;0.60;0.60;;;13.30;99.90;;;;;;5049101;28;20045;-70
2023/05/11 06:22:34;;;;;;;1.77;1.20;;;13.30;99.90;;;;;;5051423;28;20087;-70
2023/05/11 06:25:00;;;;;;;0.75;0.47;;;13.30;99.90;;;;;;5048975;28;20045;-71
2023/05/11 06:27:28;;;;;;;0.52;0.32;;;13.10;99.90;;;;;;5080816;28;20389;-70
2023/05/11 06:29:56;;;;;;;1.25;1.15;;;13.50;99.90;;;;;;5032708;28;20596;-70
2023/05/11 06:32:23;;;;;;;0.20;0.20;;;13.60;99.90;;;;;;5052281;28;20024;-72
2023/05/11 06:34:50;;;;;;;5.75;2.53;;;13.90;99.90;;;;;;5048902;28;20537;-72
2023/05/11 06:37:19;;;;;;;0.60;0.60;;;13.80;99.90;;;;;;5045062;28;20155;-74
2023/05/11 06:39:47;;;;;;;5.35;3.50;;;13.90;99.90;;;;;;5048552;28;20072;-74
2023/05/11 06:42:13;;;;;;;1.45;1.25;;;13.60;99.90;;;;;;5044190;28;20025;-73
2023/05/11 06:44:40;;;;;;;6.38;4.82;;;13.60;99.90;;;;;;5051220;28;20037;-75
2023/05/11 06:47:07;;;;;;;9.40;2.70;;;13.50;99.90;;;;;;5048547;28;20022;-77
2023/05/11 06:49:33;;;;;;;4.20;2.53;;;13.20;99.90;;;;;;5048290;28;20028;-74
2023/05/11 06:51:59;;;;;;;0.75;0.75;;;13.20;99.90;;;;;;5052860;28;20377;-75
2023/05/11 06:54:25;;;;;;;3.50;1.08;;;13.20;99.90;;;;;;5048124;28;20550;-76
2023/05/11 06:56:51;;;;;;;0.77;0.77;;;13.20;99.90;;;;;;5047549;28;20064;-76
2023/05/11 06:59:16;;;;;;;3.72;2.45;;;13.00;99.90;;;;;;5048529;28;20026;-73
2023/05/11 07:01:42;;;;;;;6.28;2.30;;;13.30;99.90;;;;;;5051444;28;20024;-74
2023/05/11 07:04:08;;;;;;;4.53;2.42;;;13.50;99.90;;;;;;5053099;28;20028;-74
2023/05/11 07:06:34;;;;;;;0.47;0.47;;;13.60;99.90;;;;;;5052249;28;20068;-74
2023/05/11 07:09:02;;;;;;;0.90;0.73;;;13.60;99.90;;;;;;5051888;28;20100;-72
2023/05/11 07:11:29;;;;;;;1.45;0.80;;;13.50;99.90;;;;;;5052634;28;20033;-75
2023/05/11 07:13:55;;;;;;;4.88;1.80;;;13.70;99.90;;;;;;5049941;28;20033;-74
2023/05/11 07:16:20;;;;;;;1.08;0.80;;;13.70;99.90;;;;;;5052819;28;20025;-74
2023/05/11 07:18:46;;;;;;;16.55;3.20;;;13.80;99.90;;;;;;5052706;28;20033;-70
2023/05/11 07:21:12;;;;;;;0.38;0.38;;;13.90;99.90;;;;;;5052771;28;20025;-75
2023/05/11 07:23:38;;;;;;;0.32;0.32;;;14.10;99.90;;;;;;5052643;28;20175;-74
2023/05/11 07:26:07;;;;;;;2.67;1.75;;;14.20;99.90;;;;;;5052470;28;20024;-74
2023/05/11 07:28:35;;;;;;;0.60;0.60;;;14.10;99.90;;;;;;5052494;28;20029;-73
2023/05/11 07:31:00;;;;;;;0.30;0.30;;;14.00;99.90;;;;;;5051560;28;20029;-74
2023/05/11 07:33:26;;;;;;;1.88;1.75;;;13.60;99.90;;;;;;5052581;28;20489;-74
2023/05/11 07:35:52;;;;;;;6.22;3.92;;;13.80;99.90;;;;;;5052170;28;20041;-75
2023/05/11 07:38:17;;;;;;;2.17;1.10;;;14.10;99.90;;;;;;5052539;28;20036;-74
2023/05/11 07:40:43;;;;;;;9.93;2.47;;;14.10;99.90;;;;;;5052382;28;20036;-76
2023/05/11 07:43:09;;;;;;;7.43;2.75;;;13.80;99.90;;;;;;5031019;28;20028;-76
2023/05/11 07:45:35;;;;;;;0.08;0.08;;;13.80;99.90;;;;;;5043053;28;20036;-75
2023/05/11 07:48:00;;;;;;;0.00;0.00;;;13.80;99.90;;;;;;5052278;28;20013;-76
2023/05/11 07:50:26;;;;;;;3.38;1.55;;;14.30;99.90;;;;;;5052368;28;20028;-74
2023/05/11 07:52:52;;;;;;;0.10;0.10;;;14.20;99.90;;;;;;5052183;28;20029;-75
2023/05/11 07:55:18;;;;;;;4.68;2.03;;;14.30;99.90;;;;;;5052288;28;20071;-75
2023/05/11 07:57:44;;;;;;;23.02;5.45;;;14.10;99.90;;;;;;5052152;28;20036;-73
2023/05/11 08:00:11;;;;;;;0.30;0.30;;;14.10;99.90;;;;;;5052410;28;20017;-72
2023/05/11 08:02:39;;;;;;;1.17;1.08;;;14.20;99.90;;;;;;5052071;28;20029;-71
2023/05/11 08:05:06;;;;;;;0.00;0.00;;;14.40;99.90;;;;;;5052021;28;20041;-75
2023/05/11 08:07:31;;;;;;;4.00;3.15;;;14.80;99.90;;;;;;5056159;28;20017;-76
2023/05/11 08:09:57;;;;;;;0.63;0.47;;;14.50;99.90;;;;;;5055913;28;20051;-75
2023/05/11 08:12:23;;;;;;;0.88;0.85;;;14.60;99.90;;;;;;5056070;28;20029;-75
2023/05/11 08:14:48;;;;;;;5.95;1.20;;;14.60;99.90;;;;;;5056170;28;20041;-74
2023/05/11 08:17:14;;;;;;;2.47;1.50;;;14.50;99.90;;;;;;5035807;28;20023;-74
2023/05/11 08:19:40;;;;;;;14.93;3.92;;;14.70;99.90;;;;;;5055866;28;20363;-76
2023/05/11 08:22:06;;;;;;;0.10;0.10;;;14.70;99.90;;;;;;5056248;28;20037;-75
2023/05/11 08:24:32;;;;;;;3.10;1.85;;;14.20;99.90;;;;;;5055640;28;20035;-74
2023/05/11 08:26:57;;;;;;;1.27;1.17;;;14.10;99.90;;;;;;5055926;28;20024;-73
2023/05/11 08:29:26;;;;;;;0.57;0.57;;;14.40;99.90;;;;;;5055585;28;20432;-75
2023/05/11 08:31:52;;;;;;;1.08;1.02;;;14.60;99.90;;;;;;5055869;28;20025;-75
2023/05/11 08:34:18;;;;;;;3.30;1.30;;;14.70;99.90;;;;;;5055310;28;20031;-74
2023/05/11 08:36:44;;;;;;;0.00;0.00;;;14.50;99.90;;;;;;5055804;28;20151;-75
2023/05/11 08:39:10;;;;;;;0.10;0.10;;;14.60;99.90;;;;;;5055488;28;20477;-74
2023/05/11 08:41:36;;;;;;;0.10;0.10;;;14.80;99.90;;;;;;5034246;28;20040;-74
2023/05/11 08:44:02;;;;;;;1.15;1.08;;;14.90;99.90;;;;;;5047506;28;20032;-70
2023/05/11 08:46:34;;;;;;;4.07;1.30;;;15.20;99.90;;;;;;5055362;28;20285;-70
2023/05/11 08:49:00;;;;;;;1.55;1.45;;;15.00;99.90;;;;;;5055035;28;20036;-70
2023/05/11 08:51:27;;;;;;;5.60;3.20;;;15.30;99.90;;;;;;5055233;28;20037;-67
2023/05/11 08:53:55;;;;;;;2.30;1.02;;;15.20;99.90;;;;;;5055236;28;20033;-68
2023/05/11 08:56:22;;;;;;;23.83;4.75;;;15.60;99.90;;;;;;5055252;28;20082;-68
2023/05/11 08:58:49;;;;;;;0.88;0.50;;;15.70;99.90;;;;;;5054981;28;20398;-70
2023/05/11 09:01:16;;;;;;;0.30;0.30;;;15.60;99.90;;;;;;5055300;28;20025;-77
2023/05/11 09:03:45;;;;;;;0.55;0.55;;;15.40;99.90;;;;;;5054945;28;20021;-74
2023/05/11 09:06:11;;;;;;;8.05;4.40;;;15.70;99.90;;;;;;5055018;28;20484;-73
2023/05/11 09:08:39;;;;;;;2.55;1.95;;;15.70;99.90;;;;;;5055021;28;20513;-73
2023/05/11 09:11:05;;;;;;;0.45;0.45;;;15.80;99.90;;;;;;5054949;28;20090;-71
2023/05/11 09:13:31;;;;;;;1.40;1.30;;;16.00;99.90;;;;;;5055221;28;20025;-74
2023/05/11 09:15:58;;;;;;;2.17;0.52;;;15.90;99.90;;;;;;5054813;28;20025;-74
2023/05/11 09:18:24;;;;;;;2.33;1.55;;;16.50;99.90;;;;;;5033446;28;20030;-73
2023/05/11 09:20:51;;;;;;;3.20;1.35;;;16.50;99.90;;;;;;5051220;28;20033;-72
2023/05/11 09:23:24;;;;;;;2.58;1.38;;;16.50;99.90;;;;;;5054829;28;20060;-74
2023/05/11 09:25:49;;;;;;;1.23;0.77;;;16.40;99.90;;;;;;5054289;28;20045;-72
2023/05/11 09:28:20;;;;;;;0.00;0.00;;;16.10;99.90;;;;;;5054855;28;20104;-74
2023/05/11 09:30:46;;;;;;;0.00;0.00;;;16.00;99.90;;;;;;5054568;28;20025;-74
2023/05/11 09:33:19;;;;;;;0.00;0.00;;;16.40;99.90;;;;;;5054444;28;20036;-74
2023/05/11 09:35:45;;;;;;;0.30;0.30;;;16.40;99.90;;;;;;5033323;28;20029;-73
2023/05/11 09:38:13;;;;;;;0.20;0.20;;;16.40;99.90;;;;;;5054124;28;20021;-74
2023/05/11 09:40:45;;;;;;;3.70;1.48;;;16.00;99.90;;;;;;5054428;28;20145;-73
2023/05/11 09:43:21;;;;;;;5.57;4.28;;;16.20;99.90;;;;;;5054428;28;20053;-74
2023/05/11 09:45:49;;;;;;;3.25;1.27;;;16.00;99.90;;;;;;5053975;28;20041;-74
2023/05/11 09:48:20;;;;;;;7.03;2.65;;;16.10;99.90;;;;;;5054645;28;20489;-74
2023/05/11 09:50:50;;;;;;;;;;;16.10;99.90;;;;;;5054804;28;20112;-69
2023/05/11 09:53:16;;;;;;;0.80;0.77;;;15.90;99.90;;;;;;5054246;28;19920;-69
2023/05/11 09:55:53;;;;;;;10.45;1.58;;;15.70;99.90;;;;;;5054222;28;20481;-70
2023/05/11 09:58:19;;;;;;;0.52;0.52;;;15.80;99.90;;;;;;5054027;28;20033;-71
2023/05/11 10:00:50;;;;;;;0.30;0.30;;;15.90;99.90;;;;;;5053875;28;20021;-70
2023/05/11 10:03:16;;;;;;;0.80;0.73;;;16.30;99.90;;;;;;5053834;28;20090;-69
2023/05/11 10:05:58;;;;;;;0.22;0.22;;;16.50;99.90;;;;;;5053770;28;20124;-69
2023/05/11 10:08:33;;;;;;;1.02;0.95;;;17.00;99.90;;;;;;5053860;28;20035;-69
2023/05/11 10:11:01;;;;;;;0.43;0.25;;;16.60;99.90;;;;;;5053686;28;20024;-69
2023/05/11 10:13:28;;;;;;;6.28;1.75;;;16.40;99.90;;;;;;5053861;28;20028;-69
2023/05/11 10:15:55;;;;;;;13.63;5.75;;;16.80;99.90;;;;;;5053414;28;20013;-70
2023/05/11 10:18:21;;;;;;;1.20;0.95;;;16.80;99.90;;;;;;5053674;28;20171;-70
2023/05/11 10:20:47;;;;;;;0.57;0.57;;;16.40;99.90;;;;;;5053501;28;20108;-69
2023/05/11 10:23:14;;;;;;;27.45;5.38;;;16.60;99.90;;;;;;5053643;28;20037;-69
2023/05/11 10:25:40;;;;;;;2.42;1.27;;;16.90;99.90;;;;;;5053123;28;20481;-70
2023/05/11 10:28:07;;;;;;;1.85;1.52;;;17.20;99.90;;;;;;5053080;28;20595;-69
2023/05/11 10:30:34;;;;;;;2.72;2.53;;;17.50;99.90;;;;;;5053346;28;20025;-69
2023/05/11 10:33:03;;;;;;;10.27;5.75;;;17.50;99.90;;;;;;5053339;28;20024;-69
2023/05/11 10:35:30;;;;;;;3.17;2.95;;;17.10;99.90;;;;;;5053351;28;20037;-69
2023/05/11 10:37:57;;;;;;;0.28;0.28;;;17.30;99.90;;;;;;5031993;28;20018;-75
2023/05/11 10:40:23;;;;;;;12.65;4.13;;;18.40;99.90;;;;;;5046870;28;20045;-73
2023/05/11 10:43:12;;;;;;;1.10;0.70;;;18.40;99.90;;;;;;5053078;28;20061;-69
2023/05/11 10:45:48;;;;;;;3.85;2.17;;;18.60;99.90;;;;;;5053008;28;20047;-69
2023/05/11 10:48:23;;;;;;;8.20;4.40;;;19.10;99.90;;;;;;5048391;28;20029;-74
2023/05/11 10:50:56;;;;;;;1.45;1.33;;;18.30;99.90;;;;;;5044627;28;20124;-73
2023/05/11 10:53:25;;;;;;;1.58;0.88;;;18.70;99.90;;;;;;5052878;28;20039;-71
2023/05/11 10:56:00;;;;;;;4.43;2.85;;;18.90;99.90;;;;;;5048498;28;20033;-71
2023/05/11 10:59:01;;;;;;;4.93;1.92;;;18.80;99.90;;;;;;5051045;28;20025;-69
2023/05/11 11:01:35;;;;;;;1.83;0.93;;;18.30;99.90;;;;;;5047058;28;20535;-73
2023/05/11 11:04:04;;;;;;;0.30;0.30;;;18.10;99.90;;;;;;5052932;28;20492;-76
2023/05/11 11:06:32;;;;;;;6.60;2.80;;;18.30;99.90;;;;;;5032499;28;20104;-70
2023/05/11 11:09:00;;;;;;;1.33;0.70;;;18.60;99.90;;;;;;5068475;28;20426;-74
2023/05/11 11:11:31;;;;;;;1.65;1.55;;;19.30;99.90;;;;;;5052963;28;20475;-69
2023/05/11 11:14:00;;;;;;;5.32;1.75;;;19.60;99.90;;;;;;5052325;28;20054;-74
2023/05/11 11:16:26;;;;;;;3.25;0.95;;;20.10;99.90;;;;;;5052908;28;20440;-70
2023/05/11 11:19:44;;;;;;;1.75;1.20;;;19.70;99.90;;;;;;5052762;28;20390;-70
2023/05/11 11:22:35;;;;;;;8.32;3.03;;;20.40;99.90;;;;;;5040481;28;20067;-73
2023/05/11 11:25:04;;;;;;;8.95;4.45;;;19.80;99.90;;;;;;5052692;28;20033;-71
2023/05/11 11:27:52;;;;;;;1.83;1.70;;;20.00;99.90;;;;;;5052164;28;20020;-73
2023/05/11 11:30:24;;;;;;;11.15;4.50;;;19.40;99.90;;;;;;5047311;28;20054;-70
2023/05/11 11:32:52;;;;;;;7.75;3.25;;;19.50;99.90;;;;;;5052468;28;20037;-73
2023/05/11 11:35:40;;;;;;;1.65;1.45;;;19.00;99.90;;;;;;5052532;28;20100;-75
2023/05/11 11:38:07;;;;;;;0.20;0.20;;;19.60;99.90;;;;;;5052335;28;20036;-72
2023/05/11 11:40:51;;;;;;;10.02;3.22;;;20.00;99.90;;;;;;5048793;28;20399;-73
2023/05/11 11:43:24;;;;;;;0.43;0.43;;;21.00;99.90;;;;;;5055753;28;20025;-76
2023/05/11 11:46:00;;;;;;;0.80;0.80;;;21.30;99.90;;;;;;5056573;28;20052;-74
2023/05/11 11:48:36;;;;;;;0.85;0.85;;;21.50;99.90;;;;;;5056628;28;20026;-75
2023/05/11 11:51:12;;;;;;;3.92;2.33;;;21.20;99.90;;;;;;5056913;28;20064;-72
2023/05/11 11:53:39;;;;;;;6.65;4.38;;;21.20;99.90;;;;;;5056409;28;20136;-75
2023/05/11 11:56:07;;;;;;;4.78;3.80;;;20.40;99.90;;;;;;5056168;28;20036;-73
2023/05/11 11:58:42;;;;;;;0.00;0.00;;;20.10;99.90;;;;;;5056212;28;20033;-74
2023/05/11 12:01:13;;;;;;;5.82;4.38;;;19.40;99.90;;;;;;5056371;28;20103;-75
2023/05/11 12:03:40;;;;;;;20.75;6.75;;;18.80;99.90;;;;;;5056172;28;20052;-73
2023/05/11 12:06:08;;;;;;;1.23;0.77;;;18.90;99.90;;;;;;5056382;28;20512;-75
2023/05/11 12:08:38;;;;;;;6.57;0.80;;;19.40;99.90;;;;;;5056474;28;20021;-69
2023/05/11 12:11:05;;;;;;;0.98;0.98;;;19.40;99.90;;;;;;5056177;28;20044;-70
2023/05/11 12:13:32;;;;;;;11.63;5.65;;;19.40;99.90;;;;;;5056272;28;20393;-69
2023/05/11 12:16:14;;;;;;;3.65;1.95;;;19.40;99.90;;;;;;5055947;28;20096;-69
2023/05/11 12:18:40;;;;;;;;;;;19.50;99.90;;;;;;5051940;28;20386;-69
2023/05/11 12:21:17;;;;;;;8.90;5.20;;;19.80;99.90;;;;;;5055199;28;20069;-69
2023/05/11 12:23:54;;;;;;;5.65;3.45;;;19.70;99.90;;;;;;5055938;28;20057;-68
2023/05/11 12:26:21;;;;;;;15.43;4.93;;;19.70;99.90;;;;;;5055442;28;20071;-68
2023/05/11 12:28:50;;;;;;;5.68;4.15;;;19.80;99.90;;;;;;5055859;28;20028;-68
2023/05/11 12:31:17;;;;;;;6.93;4.60;;;19.80;99.90;;;;;;5055585;28;20029;-69
2023/05/11 12:33:50;;;;;;;17.75;4.82;;;20.10;99.90;;;;;;5055792;28;20025;-70
2023/05/11 12:36:17;;;;;;;9.98;4.53;;;20.20;99.90;;;;;;5055446;28;20013;-68
2023/05/11 12:38:46;;;;;;;1.73;0.80;;;19.80;99.90;;;;;;5055993;28;20112;-68
2023/05/11 12:41:22;;;;;;;14.02;2.50;;;20.40;99.90;;;;;;5055204;28;20369;-69
2023/05/11 12:43:49;;;;;;;3.53;2.85;;;20.90;99.90;;;;;;5055562;28;20150;-68
2023/05/11 12:46:17;;;;;;;5.97;2.53;;;21.10;99.90;;;;;;5055451;28;20182;-68
2023/05/11 12:48:45;;;;;;;0.00;0.00;;;20.40;99.90;;;;;;5055323;28;20029;-69
2023/05/11 12:51:11;;;;;;;1.63;1.50;;;21.10;99.90;;;;;;5055129;28;20033;-71
2023/05/11 12:53:40;;;;;;;0.45;0.45;;;21.90;99.90;;;;;;5034119;28;20402;-69
2023/05/11 12:56:07;;;;;;;2.08;1.65;;;22.40;99.90;;;;;;5048132;28;20033;-69